Data for 02/04/2009

Time Sea-Level Adjusted Pressure Absolute Pressure Temperature Relative Humidity Dew Point   
(mb) (inHg) (mb) (inHg) (C) (F) (%) (C) (F)
00:05 1024 30.24 853 25.19 -0.2 31.6 43 -11.3 11.6
00:10 1024 30.24 853 25.19 -0.2 31.6 44 -11 12.2
00:15 1024 30.24 853 25.19 -0.3 31.5 45 -10.8 12.5
00:20 1024 30.24 853 25.19 -0.2 31.6 45 -10.8 12.6
00:25 1024 30.24 853 25.19 -0 32 45 -10.7 12.8
00:30 1024 30.24 853 25.19 -0.1 31.8 47 -10 13.9
00:35 1024 30.24 853 25.19 0.3 32.6 45 -10.2 13.7
00:40 1024 30.24 853 25.19 0.4 32.6 45 -10.1 13.7
00:45 1024 30.24 853 25.19 0.3 32.5 44 -10.5 13.1
00:50 1024 30.24 853 25.19 0.1 32.1 47 -10 14
00:55 1024 30.24 853 25.19 -0 31.9 45 -10.7 12.7
01:00 1024 30.24 853 25.19 -0.4 31.3 46 -10.7 12.7
01:05 1024 30.24 853 25.19 -0.5 31 44 -11.4 11.5
01:10 1024 30.24 853 25.19 -1.7 28.9 48 -11.4 11.5
01:15 1024 30.24 853 25.19 -1.9 28.5 51 -10.9 12.4
01:20 1024 30.24 853 25.19 -1.1 29.9 50 -10.4 13.2
01:25 1024 30.24 853 25.19 -1.1 30.1 50 -10.2 13.7
01:30 1024 30.24 853 25.19 -1 30.1 49 -10.5 13.1
01:35 1024 30.24 853 25.19 -0.7 30.8 46 -10.8 12.6
01:40 1024 30.24 853 25.19 -0.8 30.6 46 -11 12.2
01:45 1024 30.24 853 25.19 -0.4 31.2 43 -11.7 11
01:50 1024 30.24 853 25.19 -1 30.3 43 -11.9 10.5
01:55 1024 30.24 853 25.19 -0.6 30.8 39 -12.8 8.9
02:00 1024 30.24 853 25.19 -0.4 31.3 42 -11.6 11
02:05 1024 30.24 853 25.19 -0.4 31.3 41 -12 10.4
02:10 1024 30.24 853 25.19 -0.2 31.6 43 -11.3 11.6
02:15 1024 30.24 853 25.19 0.1 32.3 44 -10.6 12.9
02:20 1024 30.24 853 25.19 0.5 32.9 44 -10.5 13.2
02:25 1024 30.24 853 25.19 0.8 33.4 43 -10.3 13.4
02:30 1024 30.24 853 25.19 0.6 33.1 45 -9.9 14.1
02:35 1024 30.24 853 25.19 0 32.1 47 -10 14
02:40 1024 30.24 853 25.19 -0.1 31.9 47 -10.1 13.9
02:45 1024 30.24 853 25.19 -0.4 31.4 48 -10 14
02:50 1024 30.24 853 25.19 -1 30.2 42 -12.3 9.8
02:55 1024 30.24 853 25.19 -1.9 28.6 48 -11.6 11.1
03:00 1024 30.24 853 25.19 -2.4 27.7 47 -12.2 10.1
03:05 1024 30.24 853 25.19 -2.6 27.3 47 -12.5 9.5
03:10 1024 30.24 853 25.19 -2.8 27 49 -12.1 10.3
03:15 1024 30.24 853 25.19 -2.7 27.2 46 -12.8 9
03:20 1023 30.21 853 25.19 -2 28.4 41 -13.6 7.6
03:25 1023 30.21 853 25.19 -1.7 29 41 -13.3 8.1
03:30 1023 30.21 853 25.19 -1.7 28.9 40 -13.6 7.6
03:35 1023 30.21 853 25.19 -1.9 28.5 43 -13 8.7
03:40 1023 30.21 853 25.19 -2.5 27.5 45 -12.9 8.8
03:45 1023 30.21 853 25.19 -2.8 26.9 47 -12.7 9.1
03:50 1023 30.21 853 25.19 -2.5 27.4 45 -13 8.5
03:55 1023 30.21 853 25.19 -2.7 27.2 45 -13.1 8.5
04:00 1023 30.21 852 25.16 -2.9 26.8 43 -13.7 7.3
04:05 1023 30.21 852 25.16 -2.7 27.2 43 -13.6 7.6
04:10 1023 30.21 852 25.16 -3 26.7 44 -13.7 7.4
04:15 1023 30.21 852 25.16 -2.5 27.4 42 -13.8 7.2
04:20 1023 30.21 852 25.16 -1.9 28.6 42 -13.2 8.2
04:25 1023 30.21 852 25.16 -1.9 28.7 42 -13.1 8.4
04:30 1023 30.21 852 25.16 -1.6 29.1 41 -13.3 8.1
04:35 1023 30.21 852 25.16 -1.5 29.4 45 -12 10.3
04:40 1023 30.21 852 25.16 -1.5 29.3 43 -12.5 9.4
04:45 1023 30.21 852 25.16 -1.6 29.1 44 -12.3 9.9
04:50 1023 30.21 852 25.16 -1.7 28.9 45 -12.2 10.1
04:55 1023 30.21 852 25.16 -2 28.5 48 -11.5 11.4
05:00 1023 30.21 852 25.16 -1.9 28.6 48 -11.5 11.3
05:05 1023 30.21 852 25.16 -2.2 28.1 49 -11.6 11.2
05:10 1023 30.21 852 25.16 -2.3 27.8 48 -11.8 10.8
05:15 1023 30.21 852 25.16 -2.2 28.1 47 -12.1 10.2
05:20 1023 30.21 852 25.16 -2 28.4 46 -12.1 10.3
05:25 1023 30.21 852 25.16 -1.8 28.7 46 -11.9 10.7
05:30 1023 30.21 852 25.16 -0.7 30.7 44 -11.6 11.1
05:35 1023 30.21 852 25.16 -0.5 31.1 43 -11.5 11.2
05:40 1023 30.21 852 25.16 -1.4 29.5 47 -11.3 11.6
05:45 1023 30.21 852 25.16 -2.1 28.1 48 -11.7 11
05:50 1023 30.21 852 25.16 -2.2 28 50 -11.3 11.7
05:55 1023 30.21 852 25.16 -1.9 28.7 49 -11.2 11.9
06:00 1023 30.21 852 25.16 -2.2 28.1 51 -10.9 12.4
06:05 1023 30.21 852 25.16 -2.7 27.1 53 -11 12.1
06:10 1023 30.21 852 25.16 -3.5 25.7 56 -11 12.1
06:15 1023 30.21 852 25.16 -3.5 25.8 55 -11.2 11.8
06:20 1023 30.21 852 25.16 -2.5 27.5 51 -11.3 11.7
06:25 1023 30.21 852 25.16 -2.1 28.1 49 -11.6 11.1
06:30 1023 30.21 852 25.16 -1.6 29.2 45 -12 10.5
06:35 1023 30.21 852 25.16 -1.6 29.1 43 -12.6 9.3
06:40 1023 30.21 852 25.16 -2.1 28.2 47 -11.9 10.6
06:45 1023 30.21 852 25.16 -2.2 28 44 -12.9 8.8
06:50 1023 30.21 852 25.16 -1.4 29.5 41 -13 8.5
06:55 1023 30.21 852 25.16 -1.4 29.4 45 -11.9 10.7
07:00 1023 30.21 852 25.16 -1.2 29.8 44 -11.9 10.6
07:05 1023 30.21 852 25.16 -0.6 31 42 -11.8 10.7
07:10 1023 30.21 852 25.16 -0.7 30.7 45 -11.1 12
07:15 1023 30.21 852 25.16 -0.8 30.6 45 -11.2 11.8
07:20 1023 30.21 852 25.16 -1.1 30.1 46 -11.3 11.6
07:25 1023 30.21 852 25.16 -1.8 28.7 49 -11.1 12
07:30 1023 30.21 852 25.16 -2.4 27.7 50 -11.4 11.5
07:35 1023 30.21 852 25.16 -3.2 26.2 52 -11.8 10.8
07:40 1023 30.21 852 25.16 -4.4 24 56 -12.1 10.3
07:45 1023 30.21 852 25.16 -4.9 23.2 50 -13.7 7.4
07:50 1023 30.21 852 25.16 -3.9 24.9 47 -13.7 7.4
07:55 1023 30.21 852 25.16 -3.6 25.6 47 -13.3 8
08:00 1023 30.21 852 25.16 -3.7 25.4 49 -12.8 9
08:05 1023 30.21 852 25.16 -4.2 24.4 54 -12.3 9.9
08:10 1023 30.21 852 25.16 -4.3 24.2 53 -12.6 9.3
08:15 1023 30.21 852 25.16 -3.9 25 50 -12.8 9
08:20 1023 30.21 852 25.16 -3.2 26.3 48 -12.7 9.2
08:25 1023 30.21 852 25.16 -2.6 27.4 46 -12.6 9.3
08:30 1023 30.21 852 25.16 -2.4 27.7 46 -12.5 9.5
08:35 1023 30.21 852 25.16 -2.6 27.4 47 -12.4 9.8
08:40 1023 30.21 852 25.16 -2.4 27.6 46 -12.6 9.3
08:45 1023 30.21 852 25.16 -1.9 28.5 44 -12.5 9.4
08:50 1023 30.21 852 25.16 -1.7 28.9 44 -12.5 9.6
08:55 1023 30.21 852 25.16 -1.4 29.6 42 -12.6 9.3
09:00 1023 30.21 852 25.16 -0.6 30.9 39 -13 8.6
09:05 1023 30.21 852 25.16 -0.4 31.2 36 -13.8 7.2
09:10 1023 30.21 852 25.16 -0.2 31.6 36 -13.7 7.3
09:15 1023 30.21 852 25.16 -0 32 35 -13.6 7.5
09:20 1023 30.21 852 25.16 0.5 32.8 34 -13.8 7.2
09:25 1023 30.21 852 25.16 0.9 33.6 33 -13.6 7.6
09:30 1023 30.21 852 25.16 1.8 35.2 32 -13.3 8.1
09:35 1023 30.21 852 25.16 2.3 36.1 32 -12.7 9.1
09:40 1023 30.21 853 25.19 2.6 36.8 33 -12.3 9.9
09:45 1023 30.21 853 25.19 2.7 36.9 32 -12.3 9.9
09:50 1023 30.21 853 25.19 2.3 36.1 33 -12.3 9.8
09:55 1023 30.21 853 25.19 2.7 36.9 33 -11.8 10.7
10:00 1023 30.21 853 25.19 3.3 37.9 32 -11.8 10.8
10:05 1023 30.21 853 25.19 3.6 38.6 32 -11.7 11
10:10 1023 30.21 853 25.19 4 39.1 32 -11.4 11.5
10:15 1023 30.21 853 25.19 3.9 39 32 -11.4 11.5
10:20 1023 30.21 853 25.19 3.8 38.8 32 -11.3 11.6
10:25 1023 30.21 853 25.19 4 39.2 32 -11.5 11.3
10:30 1023 30.21 853 25.19 4.4 39.9 31 -11.2 11.8
10:35 1023 30.21 853 25.19 4.2 39.6 32 -11.1 12
10:40 1023 30.21 853 25.19 4.3 39.8 31 -11.5 11.4
10:45 1023 30.21 853 25.19 4.6 40.3 31 -11.1 12
10:50 1023 30.21 852 25.16 4.8 40.7 30 -11.3 11.7
10:55 1023 30.21 852 25.16 4.5 40.1 31 -11.2 11.9
11:00 1023 30.21 852 25.16 5.1 41.2 32 -10.2 13.6
11:05 1023 30.21 852 25.16 5.6 42.1 30 -10.8 12.5
11:10 1023 30.21 852 25.16 6 42.9 28 -11.3 11.6
11:15 1023 30.21 852 25.16 5.8 42.4 29 -10.9 12.4
11:20 1023 30.21 852 25.16 5.8 42.4 29 -10.8 12.5
11:25 1023 30.21 852 25.16 5.8 42.5 29 -10.8 12.6
11:30 1023 30.21 852 25.16 6.6 43.9 28 -10.5 13.1
11:35 1023 30.21 852 25.16 6.4 43.4 30 -10.1 13.8
11:40 1023 30.21 852 25.16 6.4 43.5 30 -10.2 13.7
11:45 1023 30.21 852 25.16 6.8 44.2 32 -9 15.8
11:50 1023 30.21 852 25.16 7.1 44.7 28 -10.1 13.8
11:55 1022 30.18 852 25.16 7 44.5 29 -9.7 14.5
12:00 1022 30.18 851 25.13 6.9 44.3 29 -10.1 13.8
12:05 1022 30.18 851 25.13 7 44.5 29 -10 14.1
12:10 1022 30.18 851 25.13 6.6 43.9 29 -10.3 13.5
12:15 1022 30.18 851 25.13 7 44.6 27 -10.6 12.8
12:20 1022 30.18 851 25.13 7.6 45.8 28 -9.8 14.3
12:25 1022 30.18 851 25.13 7.9 46.3 26 -10.4 13.3
12:30 1021 30.15 851 25.13 7.8 46 28 -9.8 14.3
12:35 1021 30.15 851 25.13 7.7 45.9 27 -10.2 13.7
12:40 1021 30.15 851 25.13 8.4 47.2 26 -9.8 14.3
12:45 1021 30.15 851 25.13 9.1 48.4 27 -9 15.8
12:50 1021 30.15 851 25.13 8.8 47.8 31 -7.6 18.2
12:55 1021 30.15 850 25.1 8.7 47.6 30 -7.9 17.7
13:00 1021 30.15 850 25.1 8.2 46.8 31 -8 17.6
13:05 1021 30.15 850 25.1 8.2 46.7 31 -8 17.6
13:10 1021 30.15 850 25.1 8.7 47.7 29 -8.3 17.1
13:15 1021 30.15 850 25.1 9 48.2 31 -7.3 18.8
13:20 1021 30.15 850 25.1 9.1 48.5 30 -7.7 18.1
13:25 1021 30.15 850 25.1 8.7 47.6 31 -7.7 18.1
13:30 1021 30.15 850 25.1 8.5 47.4 31 -7.6 18.2
13:35 1021 30.15 850 25.1 9.3 48.8 30 -7.5 18.5
13:40 1021 30.15 850 25.1 8.9 47.9 29 -8.1 17.5
13:45 1020 30.12 850 25.1 8.7 47.7 29 -8.2 17.3
13:50 1020 30.12 850 25.1 9.3 48.7 30 -7.3 18.9
13:55 1020 30.12 850 25.1 9.5 49.1 29 -7.7 18.1
14:00 1020 30.12 850 25.1 10.3 50.5 24 -9.2 15.4
14:05 1020 30.12 849 25.07 10.6 51 24 -9.2 15.4
14:10 1020 30.12 849 25.07 11.2 52.1 22 -9.8 14.3
14:15 1020 30.12 849 25.07 10.7 51.2 24 -9 15.8
14:20 1020 30.12 849 25.07 10.7 51.3 25 -8.5 16.8
14:25 1020 30.12 849 25.07 9.7 49.5 26 -8.9 15.9
14:30 1020 30.12 849 25.07 10.5 50.8 22 -10.5 13.1
14:35 1020 30.12 849 25.07 10.2 50.4 24 -9.4 15.1
14:40 1020 30.12 849 25.07 10.5 50.9 24 -9 15.8
14:45 1020 30.12 849 25.07 10.7 51.2 23 -9.4 15.1
14:50 1020 30.12 849 25.07 11 51.8 24 -8.9 15.9
14:55 1020 30.12 849 25.07 11.5 52.7 25 -7.8 17.9
15:00 1020 30.12 849 25.07 11.8 53.2 24 -8.1 17.5
15:05 1020 30.12 849 25.07 11.9 53.5 25 -7.6 18.3
15:10 1020 30.12 849 25.07 11.9 53.4 25 -7.3 18.9
15:15 1020 30.12 849 25.07 11.7 53 30 -5.4 22.3
15:20 1020 30.12 849 25.07 10.6 51.1 32 -5.4 22.3
15:25 1020 30.12 849 25.07 9.3 48.8 35 -5.2 22.7
15:30 1020 30.12 849 25.07 8.1 46.6 37 -5.8 21.6
15:35 1020 30.12 849 25.07 7.7 45.8 33 -7.4 18.6
15:40 1020 30.12 849 25.07 8 46.3 34 -7 19.3
15:45 1020 30.12 849 25.07 8.1 46.5 31 -7.9 17.8
15:50 1020 30.12 849 25.07 8.6 47.5 32 -7.3 18.8
15:55 1020 30.12 849 25.07 9.2 48.5 30 -7.3 18.9
16:00 1020 30.12 849 25.07 9.6 49.3 30 -7.2 19.1
16:05 1020 30.12 849 25.07 10 49.9 29 -7.1 19.2
16:10 1020 30.12 849 25.07 9.8 49.7 29 -7.2 19.1
16:15 1020 30.12 849 25.07 9.3 48.8 30 -7.3 18.8
16:20 1020 30.12 849 25.07 9.6 49.3 30 -7 19.5
16:25 1020 30.12 849 25.07 9.8 49.6 30 -6.8 19.7
16:30 1020 30.12 849 25.07 9.7 49.4 33 -5.7 21.8
16:35 1020 30.12 849 25.07 8.3 46.9 39 -5 23
16:40 1020 30.12 849 25.07 7.6 45.7 39 -5.5 22.2
16:45 1020 30.12 849 25.07 7.2 44.9 42 -4.9 23.3
16:50 1020 30.12 849 25.07 7 44.6 40 -5.6 21.8
16:55 1020 30.12 849 25.07 7.3 45.2 36 -6.9 19.6
17:00 1020 30.12 849 25.07 7.6 45.8 31 -8.3 17
17:05 1020 30.12 849 25.07 8 46.3 28 -9.2 15.4
17:10 1020 30.12 849 25.07 8.2 46.8 30 -8.2 17.2
17:15 1019 30.09 849 25.07 8.2 46.7 36 -5.9 21.3
17:20 1019 30.09 849 25.07 8.1 46.5 37 -5.8 21.6
17:25 1019 30.09 849 25.07 7.9 46.3 38 -5.5 22.1
17:30 1019 30.09 849 25.07 7.6 45.6 37 -6.2 20.9
17:35 1019 30.09 849 25.07 7.2 44.9 41 -5.3 22.4
17:40 1019 30.09 849 25.07 6.3 43.4 41 -6.1 21
17:45 1019 30.09 849 25.07 6.1 42.9 44 -5.2 22.6
17:50 1019 30.09 849 25.07 5.9 42.5 44 -5.4 22.3
17:55 1019 30.09 849 25.07 5.8 42.5 42 -6.2 20.8
18:00 1020 30.12 849 25.07 6.1 42.9 40 -6.6 20.2
18:05 1019 30.09 849 25.07 6.2 43.1 39 -6.7 19.9
18:10 1019 30.09 849 25.07 6.1 43 41 -6.1 20.9
18:15 1019 30.09 849 25.07 5.8 42.5 41 -6.6 20.1
18:20 1019 30.09 849 25.07 5.3 41.5 42 -6.7 19.9
18:25 1020 30.12 849 25.07 5.1 41.2 41 -7 19.4
18:30 1020 30.12 849 25.07 5.8 42.4 36 -8.3 17.1
18:35 1019 30.09 849 25.07 5.9 42.7 34 -8.8 16.1
18:40 1019 30.09 849 25.07 6.1 43 36 -7.8 18
18:45 1019 30.09 849 25.07 5.9 42.6 37 -7.8 17.9
18:50 1019 30.09 849 25.07 5.4 41.7 42 -6.5 20.3
18:55 1020 30.12 849 25.07 4.2 39.5 45 -6.6 20.1
19:00 1020 30.12 849 25.07 3.9 39.1 42 -7.9 17.7
19:05 1020 30.12 849 25.07 4.4 40 39 -8.3 17.1
19:10 1020 30.12 849 25.07 4.5 40.1 39 -8.3 17.1
19:15 1020 30.12 849 25.07 4.5 40.1 40 -7.9 17.7
19:20 1020 30.12 849 25.07 4.1 39.4 40 -8.3 17.1
19:25 1020 30.12 849 25.07 4.2 39.5 39 -8.6 16.6
19:30 1020 30.12 849 25.07 4.2 39.5 40 -8.3 17
19:35 1019 30.09 849 25.07 4.3 39.7 39 -8.6 16.5
19:40 1019 30.09 849 25.07 4.8 40.6 36 -9.1 15.7
19:45 1019 30.09 849 25.07 5.1 41.3 35 -9 15.7
19:50 1019 30.09 849 25.07 5.2 41.3 35 -9.2 15.4
19:55 1019 30.09 849 25.07 5.2 41.4 35 -9.1 15.7
20:00 1019 30.09 849 25.07 5.2 41.4 34 -9.5 14.8
20:05 1019 30.09 849 25.07 5.4 41.6 34 -9.4 15.1
20:10 1019 30.09 849 25.07 5.4 41.8 33 -9.6 14.7
20:15 1019 30.09 849 25.07 5.4 41.6 35 -9.1 15.7
20:20 1019 30.09 849 25.07 5 41 35 -9.1 15.7
20:25 1019 30.09 849 25.07 4.4 40 40 -8.1 17.5
20:30 1019 30.09 849 25.07 3.8 38.8 41 -8.2 17.2
20:35 1019 30.09 849 25.07 3.6 38.5 41 -8.5 16.7
20:40 1019 30.09 849 25.07 3.8 38.8 39 -8.8 16.2
20:45 1019 30.09 849 25.07 4.2 39.6 38 -8.9 15.9
20:50 1019 30.09 849 25.07 4.2 39.6 37 -9.2 15.5
20:55 1019 30.09 849 25.07 4.4 39.8 36 -9.4 15.1
21:00 1019 30.09 849 25.07 4.6 40.3 35 -9.7 14.5
21:05 1019 30.09 849 25.07 4.7 40.4 36 -9.3 15.3
21:10 1019 30.09 849 25.07 4.4 39.9 38 -8.8 16.1
21:15 1019 30.09 849 25.07 3.9 39.1 38 -9.2 15.4
21:20 1019 30.09 849 25.07 3.6 38.5 40 -8.9 16
21:25 1019 30.09 849 25.07 3.6 38.5 39 -9 15.8
21:30 1020 30.12 849 25.07 3.6 38.5 39 -9.1 15.6
21:35 1020 30.12 849 25.07 3.6 38.5 39 -9.2 15.5
21:40 1020 30.12 849 25.07 3.5 38.4 39 -9.1 15.6
21:45 1020 30.12 849 25.07 3.2 37.8 41 -8.9 16
21:50 1020 30.12 849 25.07 3 37.4 41 -9.1 15.6
21:55 1019 30.09 849 25.07 3.2 37.7 39 -9.4 15.1
22:00 1020 30.12 849 25.07 3.8 38.8 37 -9.6 14.7
22:05 1020 30.12 849 25.07 3.8 38.8 37 -9.5 14.8
22:10 1020 30.12 849 25.07 3.4 38.2 39 -9.1 15.6
22:15 1020 30.12 849 25.07 3.1 37.6 40 -9.2 15.4
22:20 1020 30.12 849 25.07 3.2 37.8 39 -9.5 14.8
22:25 1020 30.12 849 25.07 3.5 38.3 38 -9.4 15.1
22:30 1020 30.12 849 25.07 2.9 37.2 43 -8.5 16.8
22:35 1020 30.12 849 25.07 2.1 35.8 44 -9 15.9
22:40 1020 30.12 849 25.07 2.5 36.5 41 -9.5 14.9
22:45 1020 30.12 849 25.07 3.1 37.5 38 -9.9 14.2
22:50 1020 30.12 849 25.07 3.4 38.1 39 -9.4 15
22:55 1020 30.12 849 25.07 2.9 37.3 41 -9 15.7
23:00 1020 30.12 849 25.07 2.3 36.1 45 -8.5 16.7
23:05 1020 30.12 849 25.07 2 35.6 42 -9.5 14.8
23:10 1020 30.12 849 25.07 2.9 37.2 41 -9 15.8
23:15 1020 30.12 849 25.07 2.5 36.6 42 -9.2 15.4
23:20 1020 30.12 849 25.07 2.8 37 40 -9.6 14.8
23:25 1020 30.12 849 25.07 2.8 37.1 39 -9.7 14.5
23:30 1020 30.12 849 25.07 2.7 36.9 40 -9.6 14.6
23:35 1020 30.12 849 25.07 2.5 36.4 41 -9.4 15
23:40 1020 30.12 849 25.07 2.3 36.1 43 -8.9 15.9
23:45 1020 30.12 849 25.07 1.8 35.2 46 -8.6 16.5
23:50 1020 30.12 849 25.07 1.7 35.1 45 -9.1 15.6
23:55 1020 30.12 849 25.07 1.8 35.3 44 -9.2 15.5
24:00 1020 30.12 849 25.07 2.4 36.3 39 -10.2 13.7